createdAt,value
2023-03-22T00:00:56.545Z,3.47
2023-03-22T00:02:58.188Z,4.10
2023-03-22T00:04:59.619Z,3.83
2023-03-22T00:07:01.289Z,3.92
2023-03-22T00:09:02.777Z,3.10
2023-03-22T00:11:05.258Z,3.72
2023-03-22T00:13:08.930Z,4.10
2023-03-22T00:15:11.182Z,3.58
2023-03-22T00:17:12.608Z,3.80
2023-03-22T00:19:14.028Z,3.60
2023-03-22T00:21:16.956Z,3.65
2023-03-22T00:23:18.588Z,3.70
2023-03-22T00:25:20.049Z,3.40
2023-03-22T00:27:21.423Z,3.72
2023-03-22T00:29:24.066Z,3.47
2023-03-22T00:31:25.577Z,4.00
2023-03-22T00:33:28.936Z,3.25
2023-03-22T00:35:30.710Z,4.05
2023-03-22T00:37:33.895Z,3.60
2023-03-22T00:39:35.293Z,3.40
2023-03-22T00:41:36.702Z,3.42
2023-03-22T00:43:38.402Z,3.60
2023-03-22T00:45:40.957Z,3.70
2023-03-22T00:47:42.392Z,3.70
2023-03-22T00:49:43.840Z,3.83
2023-03-22T00:51:45.390Z,3.72
2023-03-22T00:53:49.896Z,3.33
2023-03-22T00:55:51.402Z,3.72
2023-03-22T00:57:52.793Z,3.95
2023-03-22T00:59:55.821Z,3.30
2023-03-22T01:01:58.872Z,3.97
2023-03-22T01:04:00.375Z,3.60
2023-03-22T01:06:04.605Z,4.18
2023-03-22T01:08:08.285Z,4.45
2023-03-22T01:10:11.351Z,4.18
2023-03-22T01:12:13.017Z,4.35
2023-03-22T01:14:14.407Z,3.47
2023-03-22T01:16:17.086Z,4.13
2023-03-22T01:18:18.871Z,4.28
2023-03-22T01:20:20.658Z,4.43
2023-03-22T01:22:22.119Z,4.10
2023-03-22T01:24:23.781Z,4.55
2023-03-22T01:26:25.160Z,4.55
2023-03-22T01:28:27.420Z,4.70
2023-03-22T01:30:29.705Z,4.43
2023-03-22T01:32:31.108Z,4.75
2023-03-22T01:34:32.522Z,5.10
2023-03-22T01:36:34.015Z,4.80
2023-03-22T01:38:35.483Z,4.50
2023-03-22T01:40:37.044Z,5.10
2023-03-22T01:42:38.567Z,4.95
2023-03-22T01:44:45.038Z,4.78
2023-03-22T01:46:48.691Z,5.35
2023-03-22T01:48:50.106Z,4.93
2023-03-22T01:51:03.013Z,5.25
2023-03-22T01:53:08.267Z,5.00
2023-03-22T01:55:10.109Z,5.45
2023-03-22T01:57:12.112Z,5.63
2023-03-22T01:59:15.536Z,5.00
2023-03-22T02:01:17.113Z,5.22
2023-03-22T02:03:26.842Z,5.28
2023-03-22T02:05:29.022Z,4.93
2023-03-22T02:07:31.777Z,5.25
2023-03-22T02:09:34.073Z,5.50
2023-03-22T02:11:38.989Z,5.10
2023-03-22T02:14:06.265Z,4.90
2023-03-22T02:16:29.741Z,5.00
2023-03-22T02:18:54.594Z,4.65
2023-03-22T02:21:05.481Z,4.88
2023-03-22T02:23:43.522Z,4.85
2023-03-22T02:26:09.462Z,5.03
2023-03-22T02:28:29.374Z,4.55
2023-03-22T02:30:49.138Z,4.85
2023-03-22T02:33:00.120Z,5.28
2023-03-22T02:35:23.226Z,5.10
2023-03-22T02:38:09.525Z,5.00
2023-03-22T02:40:42.838Z,5.05
2023-03-22T02:42:50.978Z,5.03
2023-03-22T02:45:07.503Z,4.82
2023-03-22T02:47:24.433Z,5.03
2023-03-22T02:49:47.648Z,5.00
2023-03-22T02:51:55.772Z,5.07
2023-03-22T02:54:09.617Z,5.22
2023-03-22T02:56:16.760Z,5.32
2023-03-22T02:58:45.814Z,5.03
2023-03-22T03:00:51.024Z,4.93
2023-03-22T03:02:57.504Z,5.05
2023-03-22T03:04:59.411Z,5.20
2023-03-22T03:07:09.738Z,5.22
2023-03-22T03:09:13.667Z,5.53
2023-03-22T03:11:15.158Z,5.47
2023-03-22T03:13:18.733Z,5.20
2023-03-22T03:15:23.766Z,5.35
2023-03-22T03:17:50.224Z,5.30
2023-03-22T03:20:21.967Z,5.80
2023-03-22T03:22:43.499Z,5.45
2023-03-22T03:25:14.692Z,5.47
2023-03-22T03:27:25.635Z,5.72
2023-03-22T03:29:55.931Z,5.50
2023-03-22T03:32:16.460Z,5.40
2023-03-22T03:34:20.565Z,5.70
2023-03-22T03:36:24.489Z,5.53
2023-03-22T03:38:29.703Z,4.90
2023-03-22T03:40:36.105Z,6.03
2023-03-22T03:42:43.359Z,5.28
2023-03-22T03:44:45.394Z,5.03
2023-03-22T03:46:48.840Z,5.13
2023-03-22T03:48:52.804Z,5.10
2023-03-22T03:50:56.060Z,5.53
2023-03-22T03:52:58.414Z,5.55
2023-03-22T03:55:00.036Z,5.35
2023-03-22T03:57:04.010Z,5.70
2023-03-22T03:59:05.818Z,5.30
2023-03-22T04:01:07.525Z,5.63
2023-03-22T04:03:09.074Z,5.45
2023-03-22T04:05:12.073Z,5.38
2023-03-22T04:07:13.451Z,5.25
2023-03-22T04:09:14.845Z,5.30
2023-03-22T04:11:16.267Z,5.30
2023-03-22T04:13:21.408Z,5.53
2023-03-22T04:15:24.057Z,5.22
2023-03-22T04:17:27.060Z,5.22
2023-03-22T04:19:28.427Z,5.45
2023-03-22T04:21:29.885Z,4.68
2023-03-22T04:23:33.095Z,5.22
2023-03-22T04:25:37.793Z,5.10
2023-03-22T04:27:40.528Z,5.00
2023-03-22T04:29:48.496Z,5.07
2023-03-22T04:31:50.371Z,5.47
2023-03-22T04:33:56.477Z,4.88
2023-03-22T04:35:59.308Z,4.90
2023-03-22T04:38:01.420Z,5.40
2023-03-22T04:40:06.749Z,5.13
2023-03-22T04:42:08.678Z,5.18
2023-03-22T04:44:10.144Z,5.50
2023-03-22T04:46:12.628Z,5.25
2023-03-22T04:48:14.178Z,4.78
2023-03-22T04:50:15.703Z,5.68
2023-03-22T04:52:17.244Z,5.32
2023-03-22T04:54:18.816Z,5.13
2023-03-22T04:56:20.890Z,5.22
2023-03-22T04:58:26.154Z,5.57
2023-03-22T05:00:30.085Z,5.00
2023-03-22T05:02:32.144Z,5.03
2023-03-22T05:04:33.546Z,4.60
2023-03-22T05:06:35.022Z,5.00
2023-03-22T05:08:36.591Z,6.13
2023-03-22T05:10:40.542Z,5.15
2023-03-22T05:12:42.212Z,5.05
2023-03-22T05:14:43.694Z,4.75
2023-03-22T05:16:45.174Z,5.07
2023-03-22T05:18:46.772Z,5.28
2023-03-22T05:20:48.692Z,4.63
2023-03-22T05:22:50.484Z,5.43
2023-03-22T05:24:51.956Z,5.57
2023-03-22T05:26:53.861Z,4.93
2023-03-22T05:28:55.711Z,5.40
2023-03-22T05:30:57.491Z,5.63
2023-03-22T05:33:03.023Z,5.70
2023-03-22T05:35:04.975Z,5.63
2023-03-22T05:37:06.441Z,5.78
2023-03-22T05:39:08.103Z,5.47
2023-03-22T05:41:10.565Z,4.97
2023-03-22T05:43:12.629Z,5.18
2023-03-22T05:45:14.273Z,5.85
2023-03-22T05:47:15.992Z,5.03
2023-03-22T05:49:17.435Z,5.18
2023-03-22T05:51:19.218Z,5.47
2023-03-22T05:53:20.678Z,5.63
2023-03-22T05:55:23.142Z,5.47
2023-03-22T05:57:24.652Z,5.47
2023-03-22T05:59:27.044Z,5.43
2023-03-22T06:01:28.419Z,5.63
2023-03-22T06:03:29.885Z,5.63
2023-03-22T06:05:32.030Z,5.10
2023-03-22T06:07:33.466Z,5.38
2023-03-22T06:09:34.888Z,5.45
2023-03-22T06:11:36.316Z,5.57
2023-03-22T06:13:37.866Z,5.70
2023-03-22T06:15:39.254Z,5.32
2023-03-22T06:17:41.474Z,5.15
2023-03-22T06:19:42.912Z,4.35
2023-03-22T06:21:44.323Z,5.57
2023-03-22T06:23:45.778Z,6.07
2023-03-22T06:25:47.559Z,5.13
2023-03-22T06:27:49.105Z,5.32
2023-03-22T06:29:54.581Z,5.68
2023-03-22T06:31:56.026Z,4.90
2023-03-22T06:33:57.471Z,5.65
2023-03-22T06:36:00.744Z,5.60
2023-03-22T06:38:02.256Z,5.00
2023-03-22T06:40:04.351Z,5.18
2023-03-22T06:42:06.365Z,4.65
2023-03-22T06:44:07.731Z,5.20
2023-03-22T06:46:09.209Z,4.38
2023-03-22T06:48:10.910Z,4.93
2023-03-22T06:50:12.735Z,4.80
2023-03-22T06:52:14.285Z,4.78
2023-03-22T06:54:19.481Z,4.43
2023-03-22T06:56:20.852Z,4.90
2023-03-22T06:58:22.533Z,4.38
2023-03-22T07:00:24.101Z,4.18
2023-03-22T07:02:25.499Z,4.20
2023-03-22T07:04:28.080Z,4.43
2023-03-22T07:06:30.811Z,4.50
2023-03-22T07:08:32.356Z,3.67
2023-03-22T07:10:33.753Z,3.78
2023-03-22T07:12:35.987Z,4.15
2023-03-22T07:14:37.480Z,4.03
2023-03-22T07:16:38.838Z,4.05
2023-03-22T07:18:40.250Z,3.55
2023-03-22T07:20:42.473Z,4.72
2023-03-22T07:22:44.349Z,3.80
2023-03-22T07:24:56.207Z,4.18
2023-03-22T07:26:58.493Z,3.95
2023-03-22T07:28:59.965Z,3.80
2023-03-22T07:31:07.780Z,3.55
2023-03-22T07:33:10.480Z,3.63
2023-03-22T07:35:11.926Z,3.63
2023-03-22T07:37:13.384Z,3.17
2023-03-22T07:39:14.825Z,3.03
2023-03-22T07:41:16.290Z,3.45
2023-03-22T07:43:17.693Z,3.20
2023-03-22T07:45:20.348Z,3.10
2023-03-22T07:47:37.746Z,2.70
2023-03-22T07:49:41.588Z,3.15
2023-03-22T07:51:42.995Z,2.85
2023-03-22T07:53:44.446Z,2.83
2023-03-22T07:55:47.655Z,2.85
2023-03-22T07:57:49.143Z,2.35
2023-03-22T07:59:50.641Z,2.40
2023-03-22T08:01:52.133Z,2.05
2023-03-22T08:03:53.574Z,2.60
2023-03-22T08:05:54.963Z,2.45
2023-03-22T08:07:56.891Z,2.50
2023-03-22T08:09:59.270Z,2.50
2023-03-22T08:12:00.790Z,2.47
2023-03-22T08:14:02.288Z,2.05
2023-03-22T08:16:04.198Z,2.10
2023-03-22T08:18:05.613Z,2.05
2023-03-22T08:20:08.885Z,1.80
2023-03-22T08:22:11.890Z,2.30
2023-03-22T08:24:15.802Z,1.73
2023-03-22T08:26:17.698Z,2.10
2023-03-22T08:28:19.618Z,2.28
2023-03-22T08:30:22.302Z,2.08
2023-03-22T08:32:24.243Z,2.22
2023-03-22T08:34:25.669Z,2.05
2023-03-22T08:36:27.151Z,2.28
2023-03-22T08:38:28.549Z,2.28
2023-03-22T08:40:30.322Z,2.00
2023-03-22T08:42:31.817Z,2.30
2023-03-22T08:44:33.193Z,2.00
2023-03-22T08:46:34.810Z,2.30
2023-03-22T08:48:37.854Z,2.40
2023-03-22T08:50:39.760Z,1.90
2023-03-22T08:52:41.194Z,2.20
2023-03-22T08:54:42.816Z,2.38
2023-03-22T08:56:44.596Z,1.95
2023-03-22T08:58:46.978Z,1.95
2023-03-22T09:00:49.811Z,1.95
2023-03-22T09:02:51.355Z,2.00
2023-03-22T09:04:53.363Z,2.13
2023-03-22T09:06:54.800Z,2.25
2023-03-22T09:08:56.630Z,2.47
2023-03-22T09:10:58.059Z,2.03
2023-03-22T09:12:59.591Z,1.90
2023-03-22T09:15:01.006Z,2.17
2023-03-22T09:17:02.577Z,2.20
2023-03-22T09:19:04.239Z,1.90
2023-03-22T09:21:07.328Z,1.70
2023-03-22T09:23:08.729Z,2.20
2023-03-22T09:25:12.648Z,2.10
2023-03-22T09:27:14.503Z,2.40
2023-03-22T09:29:15.970Z,2.08
2023-03-22T09:31:20.348Z,1.80
2023-03-22T09:33:23.081Z,2.00
2023-03-22T09:35:24.530Z,2.20
2023-03-22T09:37:30.163Z,1.92
2023-03-22T09:39:31.607Z,2.08
2023-03-22T09:41:57.079Z,2.10
2023-03-22T09:44:02.923Z,1.85
2023-03-22T09:46:11.087Z,1.88
2023-03-22T09:48:27.503Z,1.88
2023-03-22T09:50:32.340Z,1.80
2023-03-22T09:52:34.445Z,2.00
2023-03-22T09:54:39.494Z,1.58
2023-03-22T09:56:41.159Z,1.90
2023-03-22T09:58:55.236Z,1.60
2023-03-22T10:01:20.762Z,1.30
2023-03-22T10:03:37.547Z,1.63
2023-03-22T10:05:50.116Z,1.40
2023-03-22T10:08:00.410Z,1.35
2023-03-22T10:10:28.723Z,1.60
2023-03-22T10:12:42.623Z,1.30
2023-03-22T10:15:01.953Z,1.38
2023-03-22T10:19:19.329Z,1.10
2023-03-22T10:21:21.285Z,1.02
2023-03-22T10:23:29.951Z,1.10
2023-03-22T10:25:36.986Z,1.10
2023-03-22T10:27:38.506Z,1.17
2023-03-22T10:29:43.519Z,1.65
2023-03-22T10:31:45.950Z,2.58
2023-03-22T10:34:06.558Z,1.02
2023-03-22T10:36:13.764Z,1.00
2023-03-22T10:38:23.621Z,1.20
2023-03-22T10:40:28.517Z,1.02
2023-03-22T10:42:31.064Z,0.90
2023-03-22T10:44:47.971Z,0.98
2023-03-22T10:46:51.706Z,1.13
2023-03-22T10:49:01.026Z,0.90
2023-03-22T10:51:04.113Z,0.95
2023-03-22T10:53:36.993Z,0.75
2023-03-22T10:55:43.864Z,1.27
2023-03-22T10:58:00.130Z,0.90
2023-03-22T11:00:08.301Z,0.80
2023-03-22T11:02:26.415Z,1.08
2023-03-22T11:04:31.267Z,1.10
2023-03-22T11:06:36.804Z,0.80
2023-03-22T11:08:50.699Z,0.90
2023-03-22T11:10:54.998Z,0.98
2023-03-22T11:13:12.191Z,0.90
2023-03-22T11:15:27.939Z,0.80
2023-03-22T11:17:31.110Z,1.10
2023-03-22T11:19:38.063Z,1.27
2023-03-22T11:21:43.151Z,0.63
2023-03-22T11:23:53.937Z,0.70
2023-03-22T11:25:56.993Z,0.70
2023-03-22T11:28:16.959Z,0.90
2023-03-22T11:30:31.537Z,0.93
2023-03-22T11:32:37.208Z,0.85
2023-03-22T11:37:08.400Z,0.90
2023-03-22T11:39:11.853Z,1.00
2023-03-22T11:41:26.383Z,0.80
2023-03-22T11:43:40.493Z,0.98
2023-03-22T11:45:43.952Z,0.90
2023-03-22T11:51:12.502Z,1.67
2023-03-22T11:53:17.722Z,0.90
2023-03-22T11:55:19.653Z,0.95
2023-03-22T11:57:27.809Z,1.15
2023-03-22T11:59:36.672Z,0.60
2023-03-22T12:01:52.139Z,1.50
2023-03-22T12:03:57.203Z,0.95
2023-03-22T12:06:04.529Z,0.93
2023-03-22T12:08:16.074Z,0.80
2023-03-22T12:10:25.074Z,2.17
2023-03-22T12:12:31.187Z,0.80
2023-03-22T12:14:54.348Z,0.98
2023-03-22T12:17:10.974Z,0.75
2023-03-22T12:19:26.994Z,0.85
2023-03-22T12:21:29.035Z,0.73
2023-03-22T12:23:32.603Z,0.82
2023-03-22T12:25:36.663Z,0.90
2023-03-22T12:27:41.581Z,0.80
2023-03-22T12:29:51.490Z,0.80
2023-03-22T12:32:08.385Z,0.75
2023-03-22T12:34:16.874Z,0.88
2023-03-22T12:36:22.036Z,0.77
2023-03-22T12:38:35.449Z,0.70
2023-03-22T12:40:40.853Z,1.17
2023-03-22T12:43:06.731Z,0.75
2023-03-22T12:45:15.573Z,0.70
2023-03-22T12:47:17.142Z,0.80
2023-03-22T12:49:34.669Z,0.80
2023-03-22T12:51:36.771Z,0.88
2023-03-22T12:53:45.650Z,0.80
2023-03-22T12:55:48.538Z,0.88
2023-03-22T12:57:54.461Z,1.10
2023-03-22T13:00:01.536Z,0.73
2023-03-22T13:02:15.957Z,1.10
2023-03-22T13:04:37.026Z,0.80
2023-03-22T13:06:41.445Z,0.70
2023-03-22T13:09:04.521Z,0.90
2023-03-22T13:11:06.245Z,0.60
2023-03-22T13:13:31.677Z,0.68
2023-03-22T13:15:41.814Z,0.85
2023-03-22T13:17:45.279Z,1.10
2023-03-22T13:20:19.884Z,1.30
2023-03-22T13:22:44.181Z,0.77
2023-03-22T13:25:17.102Z,0.90
2023-03-22T13:27:19.011Z,0.80
2023-03-22T13:29:20.530Z,0.80
2023-03-22T13:31:40.803Z,0.80
2023-03-22T13:33:43.128Z,0.80
2023-03-22T13:35:51.140Z,0.70
2023-03-22T13:37:53.196Z,0.60
2023-03-22T13:39:54.630Z,1.05
2023-03-22T13:42:08.141Z,0.80
2023-03-22T13:44:26.909Z,0.70
2023-03-22T13:46:44.520Z,1.00
2023-03-22T13:48:52.377Z,0.98
2023-03-22T13:50:54.260Z,1.13
2023-03-22T13:53:14.631Z,0.93
2023-03-22T13:55:43.517Z,0.75
2023-03-22T13:57:45.456Z,1.35
2023-03-22T14:00:15.556Z,0.70
2023-03-22T14:02:33.710Z,0.80
2023-03-22T14:04:48.658Z,1.00
2023-03-22T14:06:56.039Z,1.13
2023-03-22T14:09:02.421Z,0.93
2023-03-22T14:11:20.082Z,1.08
2023-03-22T14:14:04.242Z,0.90
2023-03-22T14:16:42.927Z,1.35
2023-03-22T14:18:48.645Z,0.82
2023-03-22T14:20:59.007Z,1.45
